Zihuatanejo, Mexico

12:04 PM CST on December 02, 2016 (GMT -0600)
Punta Marina, La Ropa | | Change Station

Elev 177 ft 17.62 °N, 101.55 °W | Updated 2 seconds ago

Mostly Cloudy
Mostly Cloudy
87.3 °F
Feels Like 93 °F
N
1.8
Wind Variable Wind from North
Gusts 2.5 mph

Today
High -- | Low -- °F
--% Chance of Precip.
Yesterday
High -- | Low -- °F
Precip. -- in
Pressure 29.96 in
Visibility 6.0 miles
Clouds Mostly Cloudy 25000 ft
Heat Index 93 °F
Dew Point 71 °F
Humidity 59%
Rainfall 0.00 in
Snow Depth Not available.
7:01 AM 6:10 PM
Waxing Crescent, 9% visible
METAR MMZH 021645Z 22006KT 6SM BKN250 31/23 A2996 RMK 8/008 HZY DSNT SC E
Pressure 29.96 in
Visibility 6.0 miles
Clouds Mostly Cloudy 25000 ft
Heat Index 93 °F
Dew Point 71 °F
Humidity 59%
Rainfall 0.00 in
Snow Depth Not available.
7:01 AM 6:10 PM
Waxing Crescent, 9% visible
METAR MMZH 021645Z 22006KT 6SM BKN250 31/23 A2996 RMK 8/008 HZY DSNT SC E

10-Day Weather Forecast

No radar image for this location.
×

Almanac

Astronomy

Dec. 02, 2016 Rise Set
Actual Time
Civil Twilight
Nautical Twilight
Astronomical Twilight
Moon
Length of Visible Light
Length of Day
Tomorrow will be .
, % of the Moon is Illuminated

Today's Extremes

Country Highs Country Lows

Community

WunderPhotos

Upload Photos

1,955,333 photos uploaded!

WunderBlog® & News

Nearby

Air Quality

  Air Quality AQ Index Pollutant
Not available.

Snow Depth

Station Depth Elevation

Earthquake Activity

City Distance Mag. Time & Date
Minimum magnitude displayed is 2.5.

Coastal Water Temperatures

Place Temperature

Stations

Nearby Weather Stations

Station Location Temp. Windchill Dew Point Humidity Wind Precip. Elev Updated Type